sensor_id;sensor_type;location;lat;lon;timestamp;P1;durP1;ratioP1;P2;durP2;ratioP2
27612;SDS011;15036;48.094;-1.690;2022-09-09T00:00:26;17.75;;;3.60;;
27612;SDS011;15036;48.094;-1.690;2022-09-09T00:05:44;16.30;;;3.95;;
27612;SDS011;15036;48.094;-1.690;2022-09-09T00:09:03;20.27;;;3.90;;
27612;SDS011;15036;48.094;-1.690;2022-09-09T00:11:31;15.95;;;3.88;;
27612;SDS011;15036;48.094;-1.690;2022-09-09T00:14:08;13.20;;;3.58;;
27612;SDS011;15036;48.094;-1.690;2022-09-09T00:16:42;17.77;;;4.10;;
27612;SDS011;15036;48.094;-1.690;2022-09-09T00:19:24;13.35;;;3.70;;
27612;SDS011;15036;48.094;-1.690;2022-09-09T00:22:13;18.05;;;4.07;;
27612;SDS011;15036;48.094;-1.690;2022-09-09T00:24:43;15.02;;;3.78;;
27612;SDS011;15036;48.094;-1.690;2022-09-09T00:27:23;17.25;;;4.28;;
27612;SDS011;15036;48.094;-1.690;2022-09-09T00:30:25;16.88;;;3.70;;
27612;SDS011;15036;48.094;-1.690;2022-09-09T00:32:59;16.83;;;4.17;;
27612;SDS011;15036;48.094;-1.690;2022-09-09T00:35:37;18.27;;;4.40;;
27612;SDS011;15036;48.094;-1.690;2022-09-09T00:38:09;14.05;;;3.90;;
27612;SDS011;15036;48.094;-1.690;2022-09-09T00:43:33;17.33;;;3.58;;
27612;SDS011;15036;48.094;-1.690;2022-09-09T00:55:14;17.55;;;3.63;;
27612;SDS011;15036;48.094;-1.690;2022-09-09T00:57:45;15.88;;;3.90;;
27612;SDS011;15036;48.094;-1.690;2022-09-09T01:00:20;17.92;;;3.78;;
27612;SDS011;15036;48.094;-1.690;2022-09-09T01:05:30;13.90;;;3.40;;
27612;SDS011;15036;48.094;-1.690;2022-09-09T01:08:06;15.10;;;3.45;;
27612;SDS011;15036;48.094;-1.690;2022-09-09T01:10:53;13.52;;;3.28;;
27612;SDS011;15036;48.094;-1.690;2022-09-09T01:13:24;20.15;;;3.72;;
27612;SDS011;15036;48.094;-1.690;2022-09-09T01:15:51;12.80;;;3.72;;
27612;SDS011;15036;48.094;-1.690;2022-09-09T01:18:20;11.23;;;3.72;;
27612;SDS011;15036;48.094;-1.690;2022-09-09T01:28:35;13.73;;;3.63;;
27612;SDS011;15036;48.094;-1.690;2022-09-09T01:31:03;18.30;;;3.78;;
27612;SDS011;15036;48.094;-1.690;2022-09-09T01:33:31;12.20;;;3.35;;
27612;SDS011;15036;48.094;-1.690;2022-09-09T01:36:00;15.88;;;3.28;;
27612;SDS011;15036;48.094;-1.690;2022-09-09T01:38:31;19.10;;;3.78;;
27612;SDS011;15036;48.094;-1.690;2022-09-09T01:40:59;14.95;;;3.88;;
27612;SDS011;15036;48.094;-1.690;2022-09-09T01:43:25;14.57;;;3.67;;
27612;SDS011;15036;48.094;-1.690;2022-09-09T01:45:53;18.20;;;3.55;;
27612;SDS011;15036;48.094;-1.690;2022-09-09T01:48:21;16.67;;;3.47;;
27612;SDS011;15036;48.094;-1.690;2022-09-09T01:50:48;14.90;;;3.47;;
27612;SDS011;15036;48.094;-1.690;2022-09-09T01:53:14;15.98;;;3.58;;
27612;SDS011;15036;48.094;-1.690;2022-09-09T01:59:17;14.68;;;3.40;;
27612;SDS011;15036;48.094;-1.690;2022-09-09T02:02:10;15.27;;;3.25;;
27612;SDS011;15036;48.094;-1.690;2022-09-09T02:04:42;17.33;;;4.20;;
27612;SDS011;15036;48.094;-1.690;2022-09-09T02:07:15;16.30;;;3.58;;
27612;SDS011;15036;48.094;-1.690;2022-09-09T02:12:41;15.88;;;3.30;;
27612;SDS011;15036;48.094;-1.690;2022-09-09T02:15:15;14.30;;;3.28;;
27612;SDS011;15036;48.094;-1.690;2022-09-09T02:17:45;14.40;;;3.22;;
27612;SDS011;15036;48.094;-1.690;2022-09-09T02:20:14;12.15;;;2.85;;
27612;SDS011;15036;48.094;-1.690;2022-09-09T02:22:40;15.20;;;3.13;;
27612;SDS011;15036;48.094;-1.690;2022-09-09T02:25:10;13.68;;;3.28;;
27612;SDS011;15036;48.094;-1.690;2022-09-09T02:27:38;13.73;;;3.33;;
27612;SDS011;15036;48.094;-1.690;2022-09-09T02:30:06;13.75;;;3.42;;
27612;SDS011;15036;48.094;-1.690;2022-09-09T02:32:33;14.27;;;3.17;;
27612;SDS011;15036;48.094;-1.690;2022-09-09T02:35:05;13.05;;;3.00;;
27612;SDS011;15036;48.094;-1.690;2022-09-09T02:37:36;9.68;;;2.60;;
27612;SDS011;15036;48.094;-1.690;2022-09-09T02:40:03;11.35;;;2.72;;
27612;SDS011;15036;48.094;-1.690;2022-09-09T02:42:40;10.93;;;2.58;;
27612;SDS011;15036;48.094;-1.690;2022-09-09T02:45:07;12.93;;;2.75;;
27612;SDS011;15036;48.094;-1.690;2022-09-09T02:47:36;14.43;;;2.70;;
27612;SDS011;15036;48.094;-1.690;2022-09-09T02:50:19;11.82;;;2.78;;
27612;SDS011;15036;48.094;-1.690;2022-09-09T02:52:54;12.63;;;2.85;;
27612;SDS011;15036;48.094;-1.690;2022-09-09T02:58:13;11.27;;;2.72;;
27612;SDS011;15036;48.094;-1.690;2022-09-09T03:00:42;10.02;;;2.95;;
27612;SDS011;15036;48.094;-1.690;2022-09-09T03:03:09;11.43;;;2.78;;
27612;SDS011;15036;48.094;-1.690;2022-09-09T03:05:34;10.90;;;2.65;;
27612;SDS011;15036;48.094;-1.690;2022-09-09T03:08:00;11.85;;;2.58;;
27612;SDS011;15036;48.094;-1.690;2022-09-09T03:10:27;14.25;;;2.88;;
27612;SDS011;15036;48.094;-1.690;2022-09-09T03:12:52;10.27;;;2.78;;
27612;SDS011;15036;48.094;-1.690;2022-09-09T03:15:18;10.77;;;2.80;;
27612;SDS011;15036;48.094;-1.690;2022-09-09T03:17:43;14.82;;;2.83;;
27612;SDS011;15036;48.094;-1.690;2022-09-09T03:20:08;12.98;;;3.00;;
27612;SDS011;15036;48.094;-1.690;2022-09-09T03:22:34;14.95;;;2.78;;
27612;SDS011;15036;48.094;-1.690;2022-09-09T03:25:00;12.95;;;2.70;;
27612;SDS011;15036;48.094;-1.690;2022-09-09T03:27:27;12.13;;;2.42;;
27612;SDS011;15036;48.094;-1.690;2022-09-09T03:29:53;11.38;;;2.90;;
27612;SDS011;15036;48.094;-1.690;2022-09-09T03:32:19;12.98;;;2.63;;
27612;SDS011;15036;48.094;-1.690;2022-09-09T03:34:47;13.27;;;2.67;;
27612;SDS011;15036;48.094;-1.690;2022-09-09T03:37:15;11.85;;;2.80;;
27612;SDS011;15036;48.094;-1.690;2022-09-09T03:39:42;12.07;;;2.65;;
27612;SDS011;15036;48.094;-1.690;2022-09-09T03:42:08;8.80;;;2.38;;
27612;SDS011;15036;48.094;-1.690;2022-09-09T03:44:33;11.82;;;2.65;;
27612;SDS011;15036;48.094;-1.690;2022-09-09T03:46:59;10.45;;;2.63;;
27612;SDS011;15036;48.094;-1.690;2022-09-09T03:49:25;9.98;;;2.30;;
27612;SDS011;15036;48.094;-1.690;2022-09-09T03:51:53;13.68;;;2.78;;
27612;SDS011;15036;48.094;-1.690;2022-09-09T03:54:21;11.10;;;2.53;;
27612;SDS011;15036;48.094;-1.690;2022-09-09T03:56:47;10.25;;;2.35;;
27612;SDS011;15036;48.094;-1.690;2022-09-09T03:59:12;15.55;;;2.72;;
27612;SDS011;15036;48.094;-1.690;2022-09-09T04:01:39;9.02;;;2.65;;
27612;SDS011;15036;48.094;-1.690;2022-09-09T04:04:05;10.85;;;2.80;;
27612;SDS011;15036;48.094;-1.690;2022-09-09T04:06:30;10.20;;;2.50;;
27612;SDS011;15036;48.094;-1.690;2022-09-09T04:08:56;11.63;;;2.85;;
27612;SDS011;15036;48.094;-1.690;2022-09-09T04:11:21;13.10;;;2.90;;
27612;SDS011;15036;48.094;-1.690;2022-09-09T04:13:47;12.32;;;3.13;;
27612;SDS011;15036;48.094;-1.690;2022-09-09T04:16:12;16.05;;;3.38;;
27612;SDS011;15036;48.094;-1.690;2022-09-09T04:18:38;10.68;;;2.75;;
27612;SDS011;15036;48.094;-1.690;2022-09-09T04:21:04;11.95;;;3.05;;
27612;SDS011;15036;48.094;-1.690;2022-09-09T04:23:31;14.52;;;2.70;;
27612;SDS011;15036;48.094;-1.690;2022-09-09T04:25:59;18.75;;;3.45;;
27612;SDS011;15036;48.094;-1.690;2022-09-09T04:28:30;12.45;;;2.72;;
27612;SDS011;15036;48.094;-1.690;2022-09-09T04:31:03;15.73;;;3.00;;
27612;SDS011;15036;48.094;-1.690;2022-09-09T04:33:30;12.27;;;3.15;;
27612;SDS011;15036;48.094;-1.690;2022-09-09T04:35:56;10.35;;;2.67;;
27612;SDS011;15036;48.094;-1.690;2022-09-09T04:38:22;14.68;;;3.40;;
27612;SDS011;15036;48.094;-1.690;2022-09-09T04:40:51;17.67;;;3.15;;
27612;SDS011;15036;48.094;-1.690;2022-09-09T04:43:18;11.90;;;3.00;;
27612;SDS011;15036;48.094;-1.690;2022-09-09T04:45:49;15.20;;;2.92;;
27612;SDS011;15036;48.094;-1.690;2022-09-09T04:48:16;13.70;;;3.17;;
27612;SDS011;15036;48.094;-1.690;2022-09-09T04:50:42;11.82;;;2.90;;
27612;SDS011;15036;48.094;-1.690;2022-09-09T04:53:07;10.95;;;2.72;;
27612;SDS011;15036;48.094;-1.690;2022-09-09T04:55:33;13.50;;;3.03;;
27612;SDS011;15036;48.094;-1.690;2022-09-09T04:58:06;13.50;;;3.20;;
27612;SDS011;15036;48.094;-1.690;2022-09-09T05:00:36;16.58;;;2.92;;
27612;SDS011;15036;48.094;-1.690;2022-09-09T05:03:03;15.88;;;3.05;;
27612;SDS011;15036;48.094;-1.690;2022-09-09T05:05:30;18.15;;;3.22;;
27612;SDS011;15036;48.094;-1.690;2022-09-09T05:08:00;15.23;;;3.05;;
27612;SDS011;15036;48.094;-1.690;2022-09-09T05:10:33;12.75;;;3.08;;
27612;SDS011;15036;48.094;-1.690;2022-09-09T05:13:01;14.65;;;3.03;;
27612;SDS011;15036;48.094;-1.690;2022-09-09T05:15:26;15.18;;;3.10;;
27612;SDS011;15036;48.094;-1.690;2022-09-09T05:17:52;14.95;;;2.88;;
27612;SDS011;15036;48.094;-1.690;2022-09-09T05:20:21;12.90;;;2.90;;
27612;SDS011;15036;48.094;-1.690;2022-09-09T05:22:47;14.40;;;3.22;;
27612;SDS011;15036;48.094;-1.690;2022-09-09T05:25:12;15.90;;;3.30;;
27612;SDS011;15036;48.094;-1.690;2022-09-09T05:27:37;16.63;;;3.42;;
27612;SDS011;15036;48.094;-1.690;2022-09-09T05:30:03;9.73;;;3.33;;
27612;SDS011;15036;48.094;-1.690;2022-09-09T05:32:29;13.63;;;3.25;;
27612;SDS011;15036;48.094;-1.690;2022-09-09T05:34:59;10.98;;;3.30;;
27612;SDS011;15036;48.094;-1.690;2022-09-09T05:37:24;14.27;;;3.40;;
27612;SDS011;15036;48.094;-1.690;2022-09-09T05:39:50;13.32;;;3.30;;
27612;SDS011;15036;48.094;-1.690;2022-09-09T05:42:15;15.32;;;3.42;;
27612;SDS011;15036;48.094;-1.690;2022-09-09T05:44:41;17.90;;;3.92;;
27612;SDS011;15036;48.094;-1.690;2022-09-09T05:47:09;14.73;;;3.15;;
27612;SDS011;15036;48.094;-1.690;2022-09-09T05:49:35;13.63;;;3.40;;
27612;SDS011;15036;48.094;-1.690;2022-09-09T05:52:01;19.27;;;3.58;;
27612;SDS011;15036;48.094;-1.690;2022-09-09T05:54:28;16.58;;;3.60;;
27612;SDS011;15036;48.094;-1.690;2022-09-09T05:56:54;13.02;;;3.30;;
27612;SDS011;15036;48.094;-1.690;2022-09-09T05:59:20;13.88;;;3.42;;
27612;SDS011;15036;48.094;-1.690;2022-09-09T06:01:46;14.02;;;3.60;;
27612;SDS011;15036;48.094;-1.690;2022-09-09T06:04:12;16.17;;;3.67;;
27612;SDS011;15036;48.094;-1.690;2022-09-09T06:06:38;16.20;;;3.17;;
27612;SDS011;15036;48.094;-1.690;2022-09-09T06:09:05;20.95;;;3.80;;
27612;SDS011;15036;48.094;-1.690;2022-09-09T06:11:34;14.90;;;3.40;;
27612;SDS011;15036;48.094;-1.690;2022-09-09T06:14:01;14.93;;;3.28;;
27612;SDS011;15036;48.094;-1.690;2022-09-09T06:16:27;16.92;;;2.92;;
27612;SDS011;15036;48.094;-1.690;2022-09-09T06:18:54;13.02;;;2.90;;
27612;SDS011;15036;48.094;-1.690;2022-09-09T06:21:28;15.23;;;3.53;;
27612;SDS011;15036;48.094;-1.690;2022-09-09T06:23:55;15.43;;;3.42;;
27612;SDS011;15036;48.094;-1.690;2022-09-09T06:26:22;14.82;;;3.20;;
27612;SDS011;15036;48.094;-1.690;2022-09-09T06:28:50;14.43;;;3.13;;
27612;SDS011;15036;48.094;-1.690;2022-09-09T06:31:18;13.55;;;3.45;;
27612;SDS011;15036;48.094;-1.690;2022-09-09T06:33:52;16.88;;;3.50;;
27612;SDS011;15036;48.094;-1.690;2022-09-09T06:36:26;15.18;;;3.22;;
27612;SDS011;15036;48.094;-1.690;2022-09-09T06:38:52;14.82;;;3.42;;
27612;SDS011;15036;48.094;-1.690;2022-09-09T06:41:18;14.80;;;3.45;;
27612;SDS011;15036;48.094;-1.690;2022-09-09T06:43:45;20.25;;;3.42;;
27612;SDS011;15036;48.094;-1.690;2022-09-09T06:46:12;14.85;;;3.40;;
27612;SDS011;15036;48.094;-1.690;2022-09-09T06:48:46;13.27;;;3.25;;
27612;SDS011;15036;48.094;-1.690;2022-09-09T06:51:14;16.38;;;3.58;;
27612;SDS011;15036;48.094;-1.690;2022-09-09T06:53:51;12.27;;;3.53;;
27612;SDS011;15036;48.094;-1.690;2022-09-09T06:58:55;15.93;;;3.35;;
27612;SDS011;15036;48.094;-1.690;2022-09-09T07:01:25;15.65;;;3.70;;
27612;SDS011;15036;48.094;-1.690;2022-09-09T07:03:53;18.48;;;3.58;;
27612;SDS011;15036;48.094;-1.690;2022-09-09T07:06:21;10.65;;;3.08;;
27612;SDS011;15036;48.094;-1.690;2022-09-09T07:08:52;11.20;;;3.10;;
27612;SDS011;15036;48.094;-1.690;2022-09-09T07:11:20;12.98;;;2.90;;
27612;SDS011;15036;48.094;-1.690;2022-09-09T07:13:47;12.02;;;3.08;;
27612;SDS011;15036;48.094;-1.690;2022-09-09T07:16:14;12.20;;;3.00;;
27612;SDS011;15036;48.094;-1.690;2022-09-09T07:18:43;16.20;;;2.83;;
27612;SDS011;15036;48.094;-1.690;2022-09-09T07:21:13;11.68;;;2.80;;
27612;SDS011;15036;48.094;-1.690;2022-09-09T07:23:40;13.82;;;2.72;;
27612;SDS011;15036;48.094;-1.690;2022-09-09T07:26:13;13.93;;;3.03;;
27612;SDS011;15036;48.094;-1.690;2022-09-09T07:28:40;10.90;;;2.50;;
27612;SDS011;15036;48.094;-1.690;2022-09-09T07:31:07;13.15;;;2.65;;
27612;SDS011;15036;48.094;-1.690;2022-09-09T07:33:38;11.43;;;2.40;;
27612;SDS011;15036;48.094;-1.690;2022-09-09T07:36:27;8.52;;;2.03;;
27612;SDS011;15036;48.094;-1.690;2022-09-09T07:38:54;11.52;;;2.53;;
27612;SDS011;15036;48.094;-1.690;2022-09-09T07:41:25;11.95;;;2.42;;
27612;SDS011;15036;48.094;-1.690;2022-09-09T07:43:59;8.88;;;2.42;;
27612;SDS011;15036;48.094;-1.690;2022-09-09T07:46:28;9.85;;;2.47;;
27612;SDS011;15036;48.094;-1.690;2022-09-09T07:48:54;12.30;;;2.95;;
27612;SDS011;15036;48.094;-1.690;2022-09-09T07:51:25;13.90;;;2.78;;
27612;SDS011;15036;48.094;-1.690;2022-09-09T07:53:53;12.98;;;2.95;;
27612;SDS011;15036;48.094;-1.690;2022-09-09T07:56:22;10.30;;;2.58;;
27612;SDS011;15036;48.094;-1.690;2022-09-09T07:58:49;11.63;;;2.60;;
27612;SDS011;15036;48.094;-1.690;2022-09-09T08:01:18;11.68;;;2.35;;
27612;SDS011;15036;48.094;-1.690;2022-09-09T08:03:52;11.77;;;2.53;;
27612;SDS011;15036;48.094;-1.690;2022-09-09T08:06:20;8.88;;;2.42;;
27612;SDS011;15036;48.094;-1.690;2022-09-09T08:08:49;14.63;;;2.42;;
27612;SDS011;15036;48.094;-1.690;2022-09-09T08:11:15;10.00;;;2.58;;
27612;SDS011;15036;48.094;-1.690;2022-09-09T08:13:42;11.65;;;2.42;;
27612;SDS011;15036;48.094;-1.690;2022-09-09T08:16:12;11.90;;;2.53;;
27612;SDS011;15036;48.094;-1.690;2022-09-09T08:18:39;12.20;;;2.38;;
27612;SDS011;15036;48.094;-1.690;2022-09-09T08:21:06;9.35;;;2.67;;
27612;SDS011;15036;48.094;-1.690;2022-09-09T08:23:40;15.48;;;3.10;;
27612;SDS011;15036;48.094;-1.690;2022-09-09T08:26:07;13.38;;;2.70;;
27612;SDS011;15036;48.094;-1.690;2022-09-09T08:28:39;11.70;;;2.03;;
27612;SDS011;15036;48.094;-1.690;2022-09-09T08:31:14;13.07;;;2.83;;
27612;SDS011;15036;48.094;-1.690;2022-09-09T08:33:42;10.60;;;2.85;;
27612;SDS011;15036;48.094;-1.690;2022-09-09T08:36:11;9.73;;;2.60;;
27612;SDS011;15036;48.094;-1.690;2022-09-09T08:38:40;11.02;;;2.70;;
27612;SDS011;15036;48.094;-1.690;2022-09-09T08:41:11;12.20;;;2.50;;
27612;SDS011;15036;48.094;-1.690;2022-09-09T08:43:38;9.93;;;2.72;;
27612;SDS011;15036;48.094;-1.690;2022-09-09T08:46:09;11.43;;;2.45;;
27612;SDS011;15036;48.094;-1.690;2022-09-09T08:51:46;11.25;;;2.60;;
27612;SDS011;15036;48.094;-1.690;2022-09-09T08:56:39;10.85;;;2.47;;
27612;SDS011;15036;48.094;-1.690;2022-09-09T08:59:05;11.57;;;2.17;;
27612;SDS011;15036;48.094;-1.690;2022-09-09T09:10:25;7.50;;;2.20;;
27612;SDS011;15036;48.094;-1.690;2022-09-09T09:12:48;11.25;;;2.45;;
27612;SDS011;15036;48.094;-1.690;2022-09-09T09:15:16;11.25;;;2.22;;
27612;SDS011;15036;48.094;-1.690;2022-09-09T09:17:46;9.07;;;1.90;;
27612;SDS011;15036;48.094;-1.690;2022-09-09T09:20:12;8.25;;;2.17;;
27612;SDS011;15036;48.094;-1.690;2022-09-09T09:22:44;8.95;;;2.10;;
27612;SDS011;15036;48.094;-1.690;2022-09-09T09:27:46;10.63;;;2.45;;
27612;SDS011;15036;48.094;-1.690;2022-09-09T09:30:23;12.85;;;2.40;;
27612;SDS011;15036;48.094;-1.690;2022-09-09T09:32:54;12.80;;;2.50;;
27612;SDS011;15036;48.094;-1.690;2022-09-09T09:35:25;10.07;;;2.25;;
27612;SDS011;15036;48.094;-1.690;2022-09-09T09:37:50;10.70;;;2.60;;
27612;SDS011;15036;48.094;-1.690;2022-09-09T09:40:18;9.23;;;2.42;;
27612;SDS011;15036;48.094;-1.690;2022-09-09T09:42:56;8.02;;;1.92;;
27612;SDS011;15036;48.094;-1.690;2022-09-09T09:48:02;9.15;;;2.42;;
27612;SDS011;15036;48.094;-1.690;2022-09-09T09:50:34;6.28;;;2.10;;
27612;SDS011;15036;48.094;-1.690;2022-09-09T09:53:02;9.52;;;2.35;;
27612;SDS011;15036;48.094;-1.690;2022-09-09T09:55:33;9.55;;;2.00;;
27612;SDS011;15036;48.094;-1.690;2022-09-09T09:58:01;10.43;;;2.22;;
27612;SDS011;15036;48.094;-1.690;2022-09-09T10:00:29;8.18;;;2.05;;
27612;SDS011;15036;48.094;-1.690;2022-09-09T10:02:54;10.00;;;2.15;;
27612;SDS011;15036;48.094;-1.690;2022-09-09T10:05:30;14.13;;;2.42;;
27612;SDS011;15036;48.094;-1.690;2022-09-09T10:08:12;10.27;;;2.22;;
27612;SDS011;15036;48.094;-1.690;2022-09-09T10:13:31;8.20;;;2.35;;
27612;SDS011;15036;48.094;-1.690;2022-09-09T10:22:02;9.77;;;2.40;;
27612;SDS011;15036;48.094;-1.690;2022-09-09T10:24:54;10.45;;;2.63;;
27612;SDS011;15036;48.094;-1.690;2022-09-09T10:27:33;12.15;;;3.00;;
27612;SDS011;15036;48.094;-1.690;2022-09-09T10:30:18;8.32;;;2.22;;
27612;SDS011;15036;48.094;-1.690;2022-09-09T10:57:43;7.68;;;1.48;;
27612;SDS011;15036;48.094;-1.690;2022-09-09T11:03:20;5.85;;;1.55;;
27612;SDS011;15036;48.094;-1.690;2022-09-09T11:05:52;5.88;;;1.60;;
27612;SDS011;15036;48.094;-1.690;2022-09-09T11:08:23;7.00;;;1.70;;
27612;SDS011;15036;48.094;-1.690;2022-09-09T11:18:38;6.95;;;1.70;;
27612;SDS011;15036;48.094;-1.690;2022-09-09T11:21:08;5.40;;;1.50;;
27612;SDS011;15036;48.094;-1.690;2022-09-09T11:23:43;6.13;;;1.30;;
27612;SDS011;15036;48.094;-1.690;2022-09-09T11:26:18;5.63;;;1.23;;
27612;SDS011;15036;48.094;-1.690;2022-09-09T11:29:17;6.80;;;1.73;;
27612;SDS011;15036;48.094;-1.690;2022-09-09T11:37:17;6.13;;;1.80;;
27612;SDS011;15036;48.094;-1.690;2022-09-09T11:43:14;7.97;;;1.55;;
27612;SDS011;15036;48.094;-1.690;2022-09-09T11:45:49;9.00;;;1.67;;
27612;SDS011;15036;48.094;-1.690;2022-09-09T11:48:37;6.15;;;1.58;;
27612;SDS011;15036;48.094;-1.690;2022-09-09T11:51:11;9.23;;;1.67;;
27612;SDS011;15036;48.094;-1.690;2022-09-09T11:53:54;7.10;;;1.67;;
27612;SDS011;15036;48.094;-1.690;2022-09-09T11:56:31;6.20;;;1.52;;
27612;SDS011;15036;48.094;-1.690;2022-09-09T12:06:43;6.18;;;1.10;;
27612;SDS011;15036;48.094;-1.690;2022-09-09T12:11:50;3.08;;;1.10;;
27612;SDS011;15036;48.094;-1.690;2022-09-09T12:14:22;4.00;;;1.20;;
27612;SDS011;15036;48.094;-1.690;2022-09-09T12:19:38;4.60;;;1.25;;
27612;SDS011;15036;48.094;-1.690;2022-09-09T12:24:48;5.47;;;1.55;;
27612;SDS011;15036;48.094;-1.690;2022-09-09T12:27:22;7.43;;;1.42;;
27612;SDS011;15036;48.094;-1.690;2022-09-09T12:32:32;6.05;;;1.50;;
27612;SDS011;15036;48.094;-1.690;2022-09-09T12:35:09;7.13;;;1.60;;
27612;SDS011;15036;48.094;-1.690;2022-09-09T12:37:53;7.05;;;1.35;;
27612;SDS011;15036;48.094;-1.690;2022-09-09T12:40:24;10.70;;;1.95;;
27612;SDS011;15036;48.094;-1.690;2022-09-09T12:42:52;5.40;;;1.50;;
27612;SDS011;15036;48.094;-1.690;2022-09-09T12:45:21;6.63;;;1.60;;
27612;SDS011;15036;48.094;-1.690;2022-09-09T12:47:50;6.47;;;1.52;;
27612;SDS011;15036;48.094;-1.690;2022-09-09T12:50:23;5.05;;;1.40;;
27612;SDS011;15036;48.094;-1.690;2022-09-09T12:52:51;5.93;;;1.67;;
27612;SDS011;15036;48.094;-1.690;2022-09-09T12:55:21;9.10;;;1.70;;
27612;SDS011;15036;48.094;-1.690;2022-09-09T13:00:18;5.70;;;1.67;;
27612;SDS011;15036;48.094;-1.690;2022-09-09T13:05:24;7.28;;;2.03;;
27612;SDS011;15036;48.094;-1.690;2022-09-09T13:08:11;6.40;;;1.50;;
27612;SDS011;15036;48.094;-1.690;2022-09-09T13:10:48;4.63;;;1.33;;
27612;SDS011;15036;48.094;-1.690;2022-09-09T13:13:28;5.72;;;1.42;;
27612;SDS011;15036;48.094;-1.690;2022-09-09T13:16:00;5.97;;;1.30;;
27612;SDS011;15036;48.094;-1.690;2022-09-09T13:18:28;4.38;;;1.20;;
27612;SDS011;15036;48.094;-1.690;2022-09-09T13:20:55;6.22;;;1.40;;
27612;SDS011;15036;48.094;-1.690;2022-09-09T13:23:29;4.55;;;1.60;;
27612;SDS011;15036;48.094;-1.690;2022-09-09T13:26:42;4.45;;;1.40;;
27612;SDS011;15036;48.094;-1.690;2022-09-09T13:28:51;4.20;;;1.35;;
27612;SDS011;15036;48.094;-1.690;2022-09-09T13:33:45;6.80;;;1.23;;
27612;SDS011;15036;48.094;-1.690;2022-09-09T13:36:11;8.77;;;1.50;;
27612;SDS011;15036;48.094;-1.690;2022-09-09T13:41:36;6.35;;;1.70;;
27612;SDS011;15036;48.094;-1.690;2022-09-09T13:47:35;6.90;;;2.05;;
27612;SDS011;15036;48.094;-1.690;2022-09-09T13:49:37;6.82;;;2.05;;
27612;SDS011;15036;48.094;-1.690;2022-09-09T13:52:12;8.02;;;2.42;;
27612;SDS011;15036;48.094;-1.690;2022-09-09T13:54:39;9.80;;;2.35;;
27612;SDS011;15036;48.094;-1.690;2022-09-09T14:04:29;7.50;;;1.83;;
27612;SDS011;15036;48.094;-1.690;2022-09-09T14:09:21;4.55;;;1.70;;
27612;SDS011;15036;48.094;-1.690;2022-09-09T14:11:46;5.67;;;1.93;;
27612;SDS011;15036;48.094;-1.690;2022-09-09T14:14:11;5.10;;;1.70;;
27612;SDS011;15036;48.094;-1.690;2022-09-09T14:16:37;5.57;;;1.70;;
27612;SDS011;15036;48.094;-1.690;2022-09-09T14:19:03;4.40;;;1.40;;
27612;SDS011;15036;48.094;-1.690;2022-09-09T14:21:28;3.65;;;1.60;;
27612;SDS011;15036;48.094;-1.690;2022-09-09T14:23:54;4.88;;;1.40;;
27612;SDS011;15036;48.094;-1.690;2022-09-09T14:26:20;4.78;;;1.30;;
27612;SDS011;15036;48.094;-1.690;2022-09-09T14:28:46;4.78;;;1.60;;
27612;SDS011;15036;48.094;-1.690;2022-09-09T14:31:12;3.85;;;1.40;;
27612;SDS011;15036;48.094;-1.690;2022-09-09T14:33:38;4.00;;;1.40;;
27612;SDS011;15036;48.094;-1.690;2022-09-09T14:36:04;3.85;;;1.48;;
27612;SDS011;15036;48.094;-1.690;2022-09-09T14:38:30;5.35;;;1.50;;
27612;SDS011;15036;48.094;-1.690;2022-09-09T14:43:23;4.43;;;1.20;;
27612;SDS011;15036;48.094;-1.690;2022-09-09T14:45:49;4.20;;;1.20;;
27612;SDS011;15036;48.094;-1.690;2022-09-09T14:48:16;2.53;;;0.82;;
27612;SDS011;15036;48.094;-1.690;2022-09-09T14:50:42;3.92;;;0.80;;
27612;SDS011;15036;48.094;-1.690;2022-09-09T14:53:08;6.45;;;1.17;;
27612;SDS011;15036;48.094;-1.690;2022-09-09T14:55:35;5.55;;;1.30;;
27612;SDS011;15036;48.094;-1.690;2022-09-09T14:58:01;5.43;;;1.30;;
27612;SDS011;15036;48.094;-1.690;2022-09-09T15:00:26;3.65;;;1.00;;
27612;SDS011;15036;48.094;-1.690;2022-09-09T15:02:55;3.17;;;1.10;;
27612;SDS011;15036;48.094;-1.690;2022-09-09T15:05:21;3.95;;;1.10;;
27612;SDS011;15036;48.094;-1.690;2022-09-09T15:07:47;3.92;;;1.15;;
27612;SDS011;15036;48.094;-1.690;2022-09-09T15:10:13;4.93;;;1.20;;
27612;SDS011;15036;48.094;-1.690;2022-09-09T15:12:39;4.45;;;1.30;;
27612;SDS011;15036;48.094;-1.690;2022-09-09T15:15:06;4.78;;;1.02;;
27612;SDS011;15036;48.094;-1.690;2022-09-09T15:17:32;4.40;;;1.25;;
27612;SDS011;15036;48.094;-1.690;2022-09-09T15:19:58;4.75;;;1.48;;
27612;SDS011;15036;48.094;-1.690;2022-09-09T15:22:23;6.72;;;1.13;;
27612;SDS011;15036;48.094;-1.690;2022-09-09T15:24:49;4.30;;;1.23;;
27612;SDS011;15036;48.094;-1.690;2022-09-09T15:27:15;6.72;;;1.15;;
27612;SDS011;15036;48.094;-1.690;2022-09-09T15:29:40;6.93;;;1.23;;
27612;SDS011;15036;48.094;-1.690;2022-09-09T15:32:06;4.47;;;1.17;;
27612;SDS011;15036;48.094;-1.690;2022-09-09T15:34:32;2.80;;;1.10;;
27612;SDS011;15036;48.094;-1.690;2022-09-09T15:36:58;3.72;;;1.10;;
27612;SDS011;15036;48.094;-1.690;2022-09-09T15:39:25;4.47;;;1.38;;
27612;SDS011;15036;48.094;-1.690;2022-09-09T15:41:50;5.90;;;1.25;;
27612;SDS011;15036;48.094;-1.690;2022-09-09T15:44:16;5.30;;;1.48;;
27612;SDS011;15036;48.094;-1.690;2022-09-09T15:46:50;4.65;;;1.13;;
27612;SDS011;15036;48.094;-1.690;2022-09-09T15:49:19;6.32;;;1.55;;
27612;SDS011;15036;48.094;-1.690;2022-09-09T15:51:53;5.85;;;1.65;;
27612;SDS011;15036;48.094;-1.690;2022-09-09T15:54:20;4.32;;;1.08;;
27612;SDS011;15036;48.094;-1.690;2022-09-09T15:56:50;5.85;;;1.10;;
27612;SDS011;15036;48.094;-1.690;2022-09-09T15:59:17;5.20;;;1.40;;
27612;SDS011;15036;48.094;-1.690;2022-09-09T16:01:43;5.60;;;1.45;;
27612;SDS011;15036;48.094;-1.690;2022-09-09T16:04:09;7.00;;;1.48;;
27612;SDS011;15036;48.094;-1.690;2022-09-09T16:06:35;4.68;;;1.23;;
27612;SDS011;15036;48.094;-1.690;2022-09-09T16:09:02;2.80;;;1.00;;
27612;SDS011;15036;48.094;-1.690;2022-09-09T16:11:31;4.32;;;1.23;;
27612;SDS011;15036;48.094;-1.690;2022-09-09T16:13:58;4.47;;;1.02;;
27612;SDS011;15036;48.094;-1.690;2022-09-09T16:16:25;4.50;;;1.17;;
27612;SDS011;15036;48.094;-1.690;2022-09-09T16:18:53;4.07;;;1.30;;
27612;SDS011;15036;48.094;-1.690;2022-09-09T16:23:47;5.20;;;1.40;;
27612;SDS011;15036;48.094;-1.690;2022-09-09T16:26:14;4.05;;;1.30;;
27612;SDS011;15036;48.094;-1.690;2022-09-09T16:28:41;8.00;;;1.38;;
27612;SDS011;15036;48.094;-1.690;2022-09-09T16:31:08;6.90;;;1.45;;
27612;SDS011;15036;48.094;-1.690;2022-09-09T16:33:35;5.90;;;1.35;;
27612;SDS011;15036;48.094;-1.690;2022-09-09T16:36:06;4.95;;;1.20;;
27612;SDS011;15036;48.094;-1.690;2022-09-09T16:38:36;6.40;;;1.40;;
27612;SDS011;15036;48.094;-1.690;2022-09-09T16:41:05;6.05;;;1.40;;
27612;SDS011;15036;48.094;-1.690;2022-09-09T16:43:34;4.85;;;1.50;;
27612;SDS011;15036;48.094;-1.690;2022-09-09T16:46:00;6.22;;;1.17;;
27612;SDS011;15036;48.094;-1.690;2022-09-09T16:48:28;8.13;;;1.42;;
27612;SDS011;15036;48.094;-1.690;2022-09-09T16:51:06;5.07;;;1.47;;
27612;SDS011;15036;48.094;-1.690;2022-09-09T16:53:33;6.60;;;1.33;;
27612;SDS011;15036;48.094;-1.690;2022-09-09T16:56:09;7.03;;;1.60;;
27612;SDS011;15036;48.094;-1.690;2022-09-09T16:58:40;7.38;;;1.40;;
27612;SDS011;15036;48.094;-1.690;2022-09-09T17:01:07;5.75;;;1.58;;
27612;SDS011;15036;48.094;-1.690;2022-09-09T17:03:35;6.38;;;1.65;;
27612;SDS011;15036;48.094;-1.690;2022-09-09T17:06:02;5.82;;;1.50;;
27612;SDS011;15036;48.094;-1.690;2022-09-09T17:08:30;3.30;;;1.20;;
27612;SDS011;15036;48.094;-1.690;2022-09-09T17:10:56;7.65;;;1.80;;
27612;SDS011;15036;48.094;-1.690;2022-09-09T17:13:23;5.10;;;1.60;;
27612;SDS011;15036;48.094;-1.690;2022-09-09T17:15:50;7.05;;;1.70;;